createdAt,value
2022-09-14T00:00:16.168Z,98945.28
2022-09-14T00:05:17.862Z,98927.69
2022-09-14T00:10:19.451Z,98926.28
2022-09-14T00:15:21.071Z,98931.59
2022-09-14T00:20:22.716Z,98920.25
2022-09-14T00:25:26.431Z,98910.44
2022-09-14T00:30:28.308Z,98921.00
2022-09-14T00:35:29.904Z,98908.63
2022-09-14T00:40:31.509Z,98903.09
2022-09-14T00:45:33.269Z,98897.19
2022-09-14T00:50:35.483Z,98896.44
2022-09-14T00:55:37.416Z,98897.28
2022-09-14T01:00:39.092Z,98897.06
2022-09-14T01:06:17.728Z,98895.88
2022-09-14T01:11:25.195Z,98885.31
2022-09-14T01:16:55.647Z,98890.78
2022-09-14T01:22:07.214Z,98894.53
2022-09-14T01:27:26.424Z,98883.31
2022-09-14T01:32:37.580Z,98874.88
2022-09-14T01:37:47.982Z,98870.31
2022-09-14T01:42:55.052Z,98859.25
2022-09-14T01:48:07.152Z,98852.56
2022-09-14T01:53:17.864Z,98868.94
2022-09-14T01:58:37.857Z,98853.75
2022-09-14T02:03:49.946Z,98834.31
2022-09-14T02:08:52.334Z,98836.72
2022-09-14T02:13:54.123Z,98839.53
2022-09-14T02:18:56.071Z,98847.66
2022-09-14T02:24:00.090Z,98838.97
2022-09-14T02:29:01.842Z,98833.03
2022-09-14T02:34:11.075Z,98816.94
2022-09-14T02:39:33.385Z,98828.94
2022-09-14T02:44:52.366Z,98824.31
2022-09-14T02:50:16.766Z,98816.53
2022-09-14T02:55:21.715Z,98821.19
2022-09-14T03:00:23.393Z,98827.91
2022-09-14T03:05:25.446Z,98836.53
2022-09-14T03:10:27.529Z,98827.66
2022-09-14T03:15:29.183Z,98831.50
2022-09-14T03:20:32.895Z,98826.63
2022-09-14T03:25:38.922Z,98832.66
2022-09-14T03:30:40.788Z,98830.44
2022-09-14T03:35:42.388Z,98834.63
2022-09-14T03:40:44.125Z,98825.00
2022-09-14T03:45:45.727Z,98820.34
2022-09-14T03:50:47.331Z,98817.84
2022-09-14T03:55:49.194Z,98811.47
2022-09-14T04:00:51.349Z,98801.44
2022-09-14T04:05:56.628Z,98788.22
2022-09-14T04:10:58.242Z,98788.31
2022-09-14T04:16:00.548Z,98789.19
2022-09-14T04:21:08.863Z,98780.59
2022-09-14T04:26:16.263Z,98785.63
2022-09-14T04:31:18.043Z,98792.34
2022-09-14T04:36:22.630Z,98777.63
2022-09-14T04:41:25.001Z,98767.22
2022-09-14T04:46:29.511Z,98757.63
2022-09-14T04:51:33.221Z,98756.00
2022-09-14T04:56:37.145Z,98757.56
2022-09-14T05:01:42.954Z,98765.69
2022-09-14T05:06:44.983Z,98763.88
2022-09-14T05:11:47.018Z,98755.53
2022-09-14T05:16:48.607Z,98755.50
2022-09-14T05:21:50.215Z,98753.03
2022-09-14T05:26:52.818Z,98758.03
2022-09-14T05:31:56.184Z,98745.88
2022-09-14T05:36:57.904Z,98754.03
2022-09-14T05:41:59.517Z,98753.66
2022-09-14T05:47:01.115Z,98749.66
2022-09-14T05:52:03.024Z,98750.94
2022-09-14T05:57:04.798Z,98740.69
2022-09-14T06:02:06.831Z,98746.00
2022-09-14T06:07:18.294Z,98747.16
2022-09-14T06:12:20.540Z,98748.34
2022-09-14T06:17:22.136Z,98748.22
2022-09-14T06:22:23.927Z,98736.41
2022-09-14T06:27:25.613Z,98733.22
2022-09-14T06:32:30.929Z,98730.69
2022-09-14T06:37:32.536Z,98731.69
2022-09-14T06:42:34.134Z,98736.50
2022-09-14T06:47:37.372Z,98746.94
2022-09-14T06:52:40.514Z,98737.88
2022-09-14T06:57:43.201Z,98738.41
2022-09-14T07:02:45.882Z,98750.72
2022-09-14T07:07:53.013Z,98755.75
2022-09-14T07:12:55.932Z,98745.72
2022-09-14T07:17:59.059Z,98739.03
2022-09-14T07:23:00.895Z,98737.09
2022-09-14T07:28:02.932Z,98739.72
2022-09-14T07:33:05.643Z,98728.69
2022-09-14T07:38:07.384Z,98725.75
2022-09-14T07:43:10.757Z,98718.19
2022-09-14T07:48:12.627Z,98724.28
2022-09-14T07:53:14.911Z,98716.00
2022-09-14T07:58:16.686Z,98725.50
2022-09-14T08:03:18.369Z,98728.50
2022-09-14T08:08:21.822Z,98722.53
2022-09-14T08:13:23.628Z,98727.94
2022-09-14T08:18:25.343Z,98726.25
2022-09-14T08:23:27.174Z,98732.66
2022-09-14T08:28:28.777Z,98742.22
2022-09-14T08:33:31.713Z,98742.38
2022-09-14T08:38:33.355Z,98735.78
2022-09-14T08:43:35.146Z,98733.81
2022-09-14T08:48:48.555Z,98736.47
2022-09-14T08:53:53.616Z,98724.41
2022-09-14T08:59:18.014Z,98726.75
2022-09-14T09:04:24.055Z,98722.88
2022-09-14T09:09:46.519Z,98719.47
2022-09-14T09:15:00.641Z,98722.59
2022-09-14T09:20:06.612Z,98725.50
2022-09-14T09:25:20.467Z,98722.25
2022-09-14T09:30:22.049Z,98719.97
2022-09-14T09:35:26.334Z,98713.50
2022-09-14T09:40:42.166Z,98704.47
2022-09-14T09:46:07.050Z,98703.50
2022-09-14T09:51:17.430Z,98708.84
2022-09-14T09:56:24.184Z,98693.97
2022-09-14T10:01:34.944Z,98688.94
2022-09-14T10:06:42.702Z,98679.25
2022-09-14T10:11:46.115Z,98684.06
2022-09-14T10:16:47.867Z,98685.75
2022-09-14T10:22:26.488Z,98684.41
2022-09-14T10:27:50.587Z,98688.72
2022-09-14T10:33:04.913Z,98680.78
2022-09-14T10:38:33.879Z,98681.88
2022-09-14T10:43:57.357Z,98677.16
2022-09-14T10:49:24.304Z,98688.66
2022-09-14T10:54:48.504Z,98700.81
2022-09-14T11:00:03.294Z,98707.03
2022-09-14T11:05:34.461Z,98695.88
2022-09-14T11:11:17.890Z,98700.00
2022-09-14T11:16:40.753Z,98689.19
2022-09-14T11:22:03.529Z,98679.34
2022-09-14T11:27:32.341Z,98671.31
2022-09-14T11:32:40.497Z,98674.56
2022-09-14T11:38:00.840Z,98671.81
2022-09-14T11:43:17.543Z,98649.56
2022-09-14T11:48:45.157Z,98645.53
2022-09-14T11:53:47.372Z,98664.03
2022-09-14T11:58:49.798Z,98667.47
2022-09-14T12:04:02.165Z,98648.63
2022-09-14T12:09:29.876Z,98645.63
2022-09-14T12:14:36.666Z,98642.28
2022-09-14T12:19:39.205Z,98631.38
2022-09-14T12:24:40.861Z,98640.19
2022-09-14T12:29:42.809Z,98618.59
2022-09-14T12:34:44.439Z,98623.56
2022-09-14T12:40:32.442Z,98628.41
2022-09-14T12:46:18.498Z,98627.19
2022-09-14T12:51:32.696Z,98612.84
2022-09-14T12:56:37.078Z,98602.72
2022-09-14T13:02:10.236Z,98593.72
2022-09-14T13:07:17.971Z,98588.25
2022-09-14T13:12:37.530Z,98597.09
2022-09-14T13:17:56.499Z,98590.50
2022-09-14T13:22:58.528Z,98588.88
2022-09-14T13:28:05.940Z,98591.72
2022-09-14T13:33:15.463Z,98585.84
2022-09-14T13:38:28.474Z,98580.03
2022-09-14T13:43:30.352Z,98583.38
2022-09-14T13:48:32.058Z,98568.59
2022-09-14T13:53:39.170Z,98567.94
2022-09-14T13:58:40.847Z,98562.09
2022-09-14T14:03:49.099Z,98554.16
2022-09-14T14:09:00.608Z,98557.22
2022-09-14T14:14:22.391Z,98545.81
2022-09-14T14:19:31.133Z,98550.72
2022-09-14T14:24:32.766Z,98551.28
2022-09-14T14:29:34.409Z,98544.03
2022-09-14T14:34:36.440Z,98529.72
2022-09-14T14:39:39.047Z,98543.41
2022-09-14T14:44:42.283Z,98532.56
2022-09-14T14:49:43.997Z,98531.63
2022-09-14T14:54:45.641Z,98531.13
2022-09-14T14:59:47.264Z,98537.97
2022-09-14T15:04:48.999Z,98523.00
2022-09-14T15:09:50.637Z,98531.56
2022-09-14T15:14:52.248Z,98530.03
2022-09-14T15:19:53.869Z,98525.41
2022-09-14T15:24:55.459Z,98529.88
2022-09-14T15:29:57.476Z,98519.34
2022-09-14T15:34:59.099Z,98517.66
2022-09-14T15:40:00.893Z,98517.72
2022-09-14T15:45:03.819Z,98517.97
2022-09-14T15:50:06.178Z,98510.56
2022-09-14T15:55:10.313Z,98518.00
2022-09-14T16:00:13.792Z,98520.13
2022-09-14T16:05:16.270Z,98518.13
2022-09-14T16:10:17.872Z,98508.25
2022-09-14T16:15:19.546Z,98512.41
2022-09-14T16:20:21.719Z,98503.09
2022-09-14T16:25:23.350Z,98494.44
2022-09-14T16:30:24.960Z,98499.03
2022-09-14T16:35:26.571Z,98492.44
2022-09-14T16:40:28.259Z,98483.75
2022-09-14T16:45:29.964Z,98481.84
2022-09-14T16:50:31.808Z,98480.91
2022-09-14T16:55:33.447Z,98465.38
2022-09-14T17:00:35.531Z,98457.28
2022-09-14T17:05:37.154Z,98461.00
2022-09-14T17:10:38.781Z,98458.44
2022-09-14T17:15:40.417Z,98454.97
2022-09-14T17:20:52.619Z,98448.25
2022-09-14T17:25:55.285Z,98450.72
2022-09-14T17:30:59.499Z,98440.19
2022-09-14T17:36:02.649Z,98431.44
2022-09-14T17:41:07.181Z,98422.81
2022-09-14T17:46:14.201Z,98433.44
2022-09-14T17:51:21.152Z,98433.25
2022-09-14T17:56:24.634Z,98424.97
2022-09-14T18:01:26.292Z,98419.91
2022-09-14T18:06:31.282Z,98419.84
2022-09-14T18:11:33.481Z,98426.91
2022-09-14T18:16:35.127Z,98430.59
2022-09-14T18:21:37.045Z,98422.66
2022-09-14T18:26:38.687Z,98415.44
2022-09-14T18:31:40.448Z,98422.97
2022-09-14T18:36:42.128Z,98427.41
2022-09-14T18:41:44.208Z,98428.22
2022-09-14T18:46:46.891Z,98421.81
2022-09-14T18:51:48.798Z,98427.13
2022-09-14T18:56:51.133Z,98439.75
2022-09-14T19:01:52.787Z,98432.31
2022-09-14T19:06:54.421Z,98420.25
2022-09-14T19:11:56.046Z,98414.91
2022-09-14T19:16:58.459Z,98402.84
2022-09-14T19:22:00.050Z,98417.25
2022-09-14T19:27:01.725Z,98416.88
2022-09-14T19:32:03.379Z,98408.44
2022-09-14T19:37:05.189Z,98394.41
2022-09-14T19:42:06.817Z,98389.31
2022-09-14T19:47:08.437Z,98383.84
2022-09-14T19:52:10.048Z,98370.78
2022-09-14T19:57:11.765Z,98377.75
2022-09-14T20:02:13.801Z,98374.22
2022-09-14T20:07:15.542Z,98356.38
2022-09-14T20:12:17.128Z,98363.00
2022-09-14T20:17:18.774Z,98386.41
2022-09-14T20:22:20.401Z,98381.84
2022-09-14T20:27:22.143Z,98381.56
2022-09-14T20:32:25.170Z,98385.09
2022-09-14T20:37:28.577Z,98377.22
2022-09-14T20:42:30.174Z,98373.59
2022-09-14T20:47:31.793Z,98368.94
2022-09-14T20:52:33.381Z,98369.25
2022-09-14T20:57:34.972Z,98384.53
2022-09-14T21:02:37.638Z,98390.41
2022-09-14T21:07:39.255Z,98404.19
2022-09-14T21:12:40.912Z,98418.44
2022-09-14T21:17:42.513Z,98415.19
2022-09-14T21:22:45.411Z,98395.63
2022-09-14T21:27:47.027Z,98422.03
2022-09-14T21:32:50.173Z,98438.91
2022-09-14T21:37:51.817Z,98445.97
2022-09-14T21:42:54.431Z,98450.16
2022-09-14T21:47:56.007Z,98439.72
2022-09-14T21:52:57.679Z,98445.72
2022-09-14T21:57:59.316Z,98422.53
2022-09-14T22:03:01.070Z,98428.88
2022-09-14T22:08:03.088Z,98432.38
2022-09-14T22:13:04.685Z,98435.34
2022-09-14T22:18:07.482Z,98443.72
2022-09-14T22:23:09.280Z,98450.19
2022-09-14T22:28:10.917Z,98442.16
2022-09-14T22:33:12.509Z,98445.81
2022-09-14T22:38:14.646Z,98446.88
2022-09-14T22:43:16.264Z,98470.03
2022-09-14T22:48:18.794Z,98469.56
2022-09-14T22:53:21.619Z,98478.66
2022-09-14T22:58:26.453Z,98477.22
2022-09-14T23:03:28.052Z,98486.16
2022-09-14T23:08:30.164Z,98475.44
2022-09-14T23:13:34.762Z,98474.63
2022-09-14T23:18:36.362Z,98478.41
2022-09-14T23:23:41.000Z,98485.81
2022-09-14T23:28:42.627Z,98482.41
2022-09-14T23:33:44.224Z,98485.41
2022-09-14T23:38:48.128Z,98485.56
2022-09-14T23:43:50.874Z,98495.66
2022-09-14T23:48:52.689Z,98496.38
2022-09-14T23:53:54.413Z,98491.34
2022-09-14T23:58:56.395Z,98507.50
